CheckWX is a tool to help pilots better visualize weather data.  It is not intended as a substitute for an official pre-flight weather briefing.

11:02:48 UTC

UAII METAR
Shymkent Airport
Shymkent, Kazakhstan
Current

33 mins ago

UAII 281030Z 05008MPS 010V080 CAVOK 34/12 Q1007 R10/0///70 NOSIG RMK QFE720/0961
Observed
May-28 @ 10:30 UTC
Wind
  • 050° at 16 KTS
Visibility
10,000+ meters
Flight Rules
VFR
Cloud Levels
  • Clear skies
Temperature
34°C / 93°F
Dewpoint
12°C / 54°F
Humidity
26%
Altimeter
29.73" Hg
Pressure
1006.92 hPa
Previous

1 hour ago

UAII 281000Z 05008MPS 360V090 CAVOK 34/11 Q1007 R10/0///70 NOSIG RMK QFE720/0961
Observed
May-28 @ 10:00 UTC
Wind
  • 050° at 16 KTS
Visibility
10,000+ meters
Flight Rules
VFR
Cloud Levels
  • Clear skies
Temperature
34°C / 93°F
Dewpoint
11°C / 52°F
Humidity
24%
Altimeter
29.73" Hg
Pressure
1006.92 hPa
Previous

2 hours ago

UAII 280930Z 05008G13MPS CAVOK 35/12 Q1007 R10/0///70 NOSIG RMK QFE720/0960
Observed
May-28 @ 09:30 UTC
Wind
  • 050° at 16 KTS
  • Gusting to 25 KTS
Visibility
10,000+ meters
Flight Rules
VFR
Cloud Levels
  • Clear skies
Temperature
35°C / 95°F
Dewpoint
12°C / 54°F
Humidity
25%
Altimeter
29.73" Hg
Pressure
1006.92 hPa